createdAt,value
2023-02-03T00:01:50.964Z,5.38
2023-02-03T00:04:17.644Z,5.61
2023-02-03T00:06:44.814Z,5.73
2023-02-03T00:09:11.471Z,5.74
2023-02-03T00:11:38.263Z,5.84
2023-02-03T00:14:05.660Z,5.85
2023-02-03T00:16:32.343Z,5.88
2023-02-03T00:18:59.232Z,5.92
2023-02-03T00:21:25.964Z,5.96
2023-02-03T00:23:52.732Z,5.99
2023-02-03T00:26:19.477Z,5.99
2023-02-03T00:28:46.222Z,6.08
2023-02-03T00:31:21.716Z,6.15
2023-02-03T00:33:48.975Z,6.22
2023-02-03T00:36:15.653Z,6.28
2023-02-03T00:38:42.335Z,6.33
2023-02-03T00:41:08.970Z,6.44
2023-02-03T00:43:35.702Z,6.40
2023-02-03T00:46:02.400Z,6.47
2023-02-03T00:48:29.892Z,6.44
2023-02-03T00:50:56.601Z,6.68
2023-02-03T00:53:23.419Z,6.72
2023-02-03T00:55:50.174Z,6.68
2023-02-03T00:58:16.773Z,6.65
2023-02-03T01:00:43.567Z,6.59
2023-02-03T01:03:10.620Z,6.59
2023-02-03T01:05:37.821Z,6.58
2023-02-03T01:08:04.856Z,6.70
2023-02-03T01:10:31.593Z,6.70
2023-02-03T01:12:58.313Z,6.73
2023-02-03T01:15:25.078Z,6.76
2023-02-03T01:17:51.744Z,6.81
2023-02-03T01:20:18.673Z,6.84
2023-02-03T01:22:45.310Z,6.92
2023-02-03T01:25:11.926Z,6.83
2023-02-03T01:27:38.644Z,6.86
2023-02-03T01:30:05.633Z,6.84
2023-02-03T01:32:32.358Z,6.93
2023-02-03T01:34:58.993Z,6.87
2023-02-03T01:37:25.777Z,6.89
2023-02-03T01:39:52.543Z,6.93
2023-02-03T01:42:19.173Z,6.92
2023-02-03T01:44:55.262Z,6.89
2023-02-03T01:47:30.917Z,6.92
2023-02-03T01:50:31.272Z,6.94
2023-02-03T01:53:03.546Z,6.92
2023-02-03T01:55:39.296Z,6.95
2023-02-03T01:58:25.903Z,6.91
2023-02-03T02:00:53.432Z,6.93
2023-02-03T02:03:21.797Z,6.96
2023-02-03T02:05:51.187Z,6.99
2023-02-03T02:08:19.418Z,6.96
2023-02-03T02:10:46.568Z,6.94
2023-02-03T02:13:13.599Z,6.98
2023-02-03T02:15:49.200Z,7.01
2023-02-03T02:19:01.229Z,7.04
2023-02-03T02:21:48.507Z,7.08
2023-02-03T02:24:42.706Z,7.06
2023-02-03T02:27:32.165Z,7.05
2023-02-03T02:30:39.028Z,7.13
2023-02-03T02:33:50.548Z,7.03
2023-02-03T02:36:27.577Z,7.14
2023-02-03T02:39:04.125Z,7.16
2023-02-03T02:42:03.233Z,7.15
2023-02-03T02:44:51.921Z,7.19
2023-02-03T02:47:20.516Z,7.11
2023-02-03T02:49:55.200Z,7.12
2023-02-03T02:52:21.892Z,7.12
2023-02-03T02:54:52.748Z,7.10
2023-02-03T02:57:20.899Z,7.13
2023-02-03T02:59:48.274Z,7.20
2023-02-03T03:02:15.065Z,7.08
2023-02-03T03:04:42.367Z,7.09
2023-02-03T03:07:14.222Z,7.08
2023-02-03T03:09:43.633Z,7.04
2023-02-03T03:12:17.492Z,7.00
2023-02-03T03:14:47.894Z,7.12
2023-02-03T03:17:37.256Z,7.18
2023-02-03T03:20:08.368Z,7.14
2023-02-03T03:22:38.760Z,7.20
2023-02-03T03:25:11.171Z,7.14
2023-02-03T03:27:41.615Z,7.08
2023-02-03T03:30:26.553Z,7.10
2023-02-03T03:32:53.387Z,7.14
2023-02-03T03:35:20.113Z,7.13
2023-02-03T03:37:56.478Z,7.11
2023-02-03T03:41:01.210Z,7.19
2023-02-03T03:43:31.009Z,7.17
2023-02-03T03:46:16.976Z,7.18
2023-02-03T03:49:13.207Z,7.17
2023-02-03T03:51:56.966Z,7.14
2023-02-03T03:54:25.048Z,7.10
2023-02-03T03:57:25.700Z,7.12
2023-02-03T03:59:52.507Z,7.08
2023-02-03T04:02:20.318Z,7.11
2023-02-03T04:04:48.475Z,7.18
2023-02-03T04:07:15.760Z,7.13
2023-02-03T04:09:43.127Z,7.16
2023-02-03T04:12:16.747Z,7.22
2023-02-03T04:14:43.403Z,7.23
2023-02-03T04:17:10.132Z,7.23
2023-02-03T04:19:36.763Z,7.30
2023-02-03T04:22:03.427Z,7.19
2023-02-03T04:24:30.150Z,7.26
2023-02-03T04:26:56.882Z,7.27
2023-02-03T04:29:23.474Z,7.34
2023-02-03T04:31:50.177Z,7.31
2023-02-03T04:34:16.881Z,7.34
2023-02-03T04:36:43.807Z,7.29
2023-02-03T04:39:10.523Z,7.29
2023-02-03T04:41:37.456Z,7.23
2023-02-03T04:44:04.217Z,7.22
2023-02-03T04:46:30.875Z,7.24
2023-02-03T04:48:57.749Z,7.26
2023-02-03T04:51:24.497Z,7.28
2023-02-03T04:53:51.155Z,7.28
2023-02-03T04:56:17.799Z,7.32
2023-02-03T04:58:44.428Z,7.32
2023-02-03T05:01:11.364Z,7.28
2023-02-03T05:03:38.140Z,7.36
2023-02-03T05:06:05.753Z,7.36
2023-02-03T05:08:32.739Z,7.33
2023-02-03T05:11:01.858Z,7.29
2023-02-03T05:13:29.443Z,7.33
2023-02-03T05:15:56.200Z,7.30
2023-02-03T05:18:22.891Z,7.38
2023-02-03T05:20:49.723Z,7.44
2023-02-03T05:23:16.424Z,7.39
2023-02-03T05:25:44.248Z,7.40
2023-02-03T05:28:11.025Z,7.36
2023-02-03T05:30:37.689Z,7.42
2023-02-03T05:33:04.375Z,7.51
2023-02-03T05:35:30.977Z,7.45
2023-02-03T05:37:57.634Z,7.46
2023-02-03T05:40:42.705Z,7.43
2023-02-03T05:43:09.495Z,7.38
2023-02-03T05:45:36.374Z,7.43
2023-02-03T05:48:03.852Z,7.47
2023-02-03T05:50:36.791Z,7.45
2023-02-03T05:53:06.185Z,7.41
2023-02-03T05:55:33.861Z,7.47
2023-02-03T05:58:01.351Z,7.49
2023-02-03T06:00:29.123Z,7.41
2023-02-03T06:02:57.887Z,7.40
2023-02-03T06:05:25.707Z,7.41
2023-02-03T06:07:52.874Z,7.50
2023-02-03T06:10:19.910Z,7.43
2023-02-03T06:12:47.099Z,7.50
2023-02-03T06:15:14.562Z,7.51
2023-02-03T06:17:47.201Z,7.51
2023-02-03T06:20:15.688Z,7.51
2023-02-03T06:22:42.862Z,7.43
2023-02-03T06:25:12.920Z,7.44
2023-02-03T06:27:40.382Z,7.55
2023-02-03T06:30:08.412Z,7.57
2023-02-03T06:32:35.044Z,7.58
2023-02-03T06:35:02.045Z,7.57
2023-02-03T06:37:28.679Z,7.51
2023-02-03T06:39:55.371Z,7.52
2023-02-03T06:42:22.274Z,7.59
2023-02-03T06:44:48.903Z,7.60
2023-02-03T06:47:15.583Z,7.59
2023-02-03T06:49:42.433Z,7.57
2023-02-03T06:52:09.364Z,7.58
2023-02-03T06:54:36.183Z,7.61
2023-02-03T06:57:03.913Z,7.60
2023-02-03T06:59:30.563Z,7.64
2023-02-03T07:01:57.435Z,7.64
2023-02-03T07:04:24.112Z,7.69
2023-02-03T07:06:51.072Z,7.67
2023-02-03T07:09:17.774Z,7.64
2023-02-03T07:11:44.417Z,7.69
2023-02-03T07:14:11.043Z,7.70
2023-02-03T07:16:37.739Z,7.68
2023-02-03T07:19:04.701Z,7.69
2023-02-03T07:21:31.575Z,7.77
2023-02-03T07:23:58.534Z,7.73
2023-02-03T07:26:26.724Z,7.75
2023-02-03T07:28:54.752Z,7.75
2023-02-03T07:31:21.988Z,7.76
2023-02-03T07:33:49.171Z,7.86
2023-02-03T07:36:15.936Z,7.77
2023-02-03T07:38:42.770Z,7.87
2023-02-03T07:41:09.437Z,7.88
2023-02-03T07:43:36.234Z,7.84
2023-02-03T07:46:02.971Z,7.89
2023-02-03T07:48:29.640Z,7.88
2023-02-03T07:50:56.305Z,7.91
2023-02-03T07:53:22.951Z,7.89
2023-02-03T07:55:49.660Z,7.82
2023-02-03T07:58:17.256Z,7.82
2023-02-03T08:00:43.837Z,7.82
2023-02-03T08:03:10.609Z,7.81
2023-02-03T08:05:37.373Z,7.89
2023-02-03T08:08:04.312Z,7.79
2023-02-03T08:10:31.264Z,7.80
2023-02-03T08:12:58.003Z,7.75
2023-02-03T08:15:24.834Z,7.77
2023-02-03T08:17:51.992Z,7.81
2023-02-03T08:20:18.735Z,7.79
2023-02-03T08:22:45.670Z,7.75
2023-02-03T08:25:13.225Z,7.79
2023-02-03T08:27:40.639Z,7.80
2023-02-03T08:30:10.691Z,7.82
2023-02-03T08:32:37.703Z,7.87
2023-02-03T08:35:04.694Z,7.82
2023-02-03T08:37:32.787Z,7.79
2023-02-03T08:40:00.291Z,7.79
2023-02-03T08:42:27.306Z,7.88
2023-02-03T08:44:54.245Z,7.90
2023-02-03T08:47:20.985Z,7.80
2023-02-03T08:49:47.870Z,7.84
2023-02-03T08:52:17.339Z,7.81
2023-02-03T08:54:45.177Z,7.76
2023-02-03T08:57:11.866Z,7.73
2023-02-03T08:59:40.490Z,7.79
2023-02-03T09:02:10.931Z,7.76
2023-02-03T09:04:37.849Z,7.78
2023-02-03T09:07:04.594Z,7.77
2023-02-03T09:09:32.272Z,7.78
2023-02-03T09:12:02.628Z,7.81
2023-02-03T09:14:30.289Z,7.82
2023-02-03T09:16:57.192Z,7.74
2023-02-03T09:19:23.994Z,7.75
2023-02-03T09:21:51.251Z,7.77
2023-02-03T09:24:18.807Z,7.73
2023-02-03T09:26:45.695Z,7.75
2023-02-03T09:29:13.215Z,7.75
2023-02-03T09:31:40.103Z,7.80
2023-02-03T09:34:07.175Z,7.71
2023-02-03T09:36:34.257Z,7.81
2023-02-03T09:39:00.916Z,7.81
2023-02-03T09:41:49.523Z,7.73
2023-02-03T09:44:37.670Z,7.77
2023-02-03T09:47:14.525Z,7.83
2023-02-03T09:49:48.277Z,7.72
2023-02-03T09:52:20.167Z,7.80
2023-02-03T09:55:02.584Z,7.78
2023-02-03T09:57:31.977Z,7.79
2023-02-03T10:00:00.215Z,7.78
2023-02-03T10:02:51.807Z,7.80
2023-02-03T10:05:25.843Z,7.72
2023-02-03T10:08:04.997Z,7.77
2023-02-03T10:10:46.013Z,7.73
2023-02-03T10:13:22.879Z,7.74
2023-02-03T10:16:11.593Z,7.76
2023-02-03T10:18:58.716Z,7.78
2023-02-03T10:21:38.196Z,7.74
2023-02-03T10:24:14.808Z,7.71
2023-02-03T10:26:42.193Z,7.71
2023-02-03T10:29:22.002Z,7.71
2023-02-03T10:31:49.796Z,7.73
2023-02-03T10:34:19.998Z,7.79
2023-02-03T10:36:57.505Z,7.76
2023-02-03T10:39:45.290Z,7.81
2023-02-03T10:42:13.365Z,7.76
2023-02-03T10:45:03.833Z,7.88
2023-02-03T10:47:36.955Z,7.89
2023-02-03T10:50:08.242Z,7.89
2023-02-03T10:52:36.443Z,7.82
2023-02-03T10:55:07.247Z,7.89
2023-02-03T10:57:37.011Z,7.88
2023-02-03T11:00:07.265Z,7.91
2023-02-03T11:02:34.510Z,7.87
2023-02-03T11:05:21.596Z,7.98
2023-02-03T11:07:48.833Z,7.96
2023-02-03T11:10:39.153Z,7.94
2023-02-03T11:13:26.112Z,8.00
2023-02-03T11:16:00.053Z,8.12
2023-02-03T11:18:34.232Z,8.08
2023-02-03T11:21:00.809Z,8.15
2023-02-03T11:23:27.457Z,8.24
2023-02-03T11:25:54.469Z,8.25
2023-02-03T11:28:22.242Z,8.21
2023-02-03T11:30:56.053Z,8.21
2023-02-03T11:33:25.001Z,8.25
2023-02-03T11:35:57.461Z,8.29
2023-02-03T11:38:31.464Z,8.35
2023-02-03T11:41:02.233Z,8.28
2023-02-03T11:43:30.159Z,8.30
2023-02-03T11:46:03.366Z,8.39
2023-02-03T11:48:33.448Z,8.41
2023-02-03T11:51:30.288Z,8.43
2023-02-03T11:54:19.908Z,8.45
2023-02-03T11:57:25.804Z,8.45
2023-02-03T12:00:32.005Z,8.53
2023-02-03T12:03:26.968Z,8.53
2023-02-03T12:06:03.190Z,8.58
2023-02-03T12:08:46.658Z,8.57
2023-02-03T12:11:37.935Z,8.57
2023-02-03T12:14:39.377Z,8.67
2023-02-03T12:17:37.007Z,8.61
2023-02-03T12:20:22.855Z,8.65
2023-02-03T12:23:13.935Z,8.66
2023-02-03T12:26:19.502Z,8.68
2023-02-03T12:28:52.129Z,8.73
2023-02-03T12:31:29.564Z,8.73
2023-02-03T12:34:29.633Z,8.78
2023-02-03T12:37:04.296Z,8.74
2023-02-03T12:39:43.272Z,8.69
2023-02-03T12:42:18.401Z,8.62
2023-02-03T12:45:01.837Z,8.62
2023-02-03T12:47:35.051Z,8.71
2023-02-03T12:50:07.884Z,8.63
2023-02-03T12:52:44.367Z,8.59
2023-02-03T12:55:44.649Z,8.62
2023-02-03T12:58:26.409Z,8.62
2023-02-03T13:01:06.822Z,8.60
2023-02-03T13:03:56.252Z,8.59
2023-02-03T13:06:39.860Z,8.65
2023-02-03T13:09:45.909Z,8.67
2023-02-03T13:12:24.284Z,8.55
2023-02-03T13:15:43.643Z,8.64
2023-02-03T13:18:35.039Z,8.76
2023-02-03T13:21:01.757Z,8.72
2023-02-03T13:23:28.570Z,8.75
2023-02-03T13:26:20.783Z,8.82
2023-02-03T13:29:36.663Z,8.80
2023-02-03T13:32:36.869Z,8.79
2023-02-03T13:35:32.234Z,8.76
2023-02-03T13:38:41.609Z,8.76
2023-02-03T13:41:28.722Z,8.75
2023-02-03T13:43:57.531Z,8.77
2023-02-03T13:46:27.203Z,8.62
2023-02-03T13:48:54.591Z,8.63
2023-02-03T13:51:24.109Z,8.70
2023-02-03T13:53:52.852Z,8.73
2023-02-03T13:56:24.546Z,8.73
2023-02-03T13:59:06.802Z,8.76
2023-02-03T14:01:38.843Z,8.72
2023-02-03T14:04:16.914Z,8.72
2023-02-03T14:07:31.045Z,8.60
2023-02-03T14:10:21.606Z,8.70
2023-02-03T14:13:18.841Z,8.78
2023-02-03T14:15:47.307Z,8.72
2023-02-03T14:18:32.230Z,8.73
2023-02-03T14:21:11.173Z,8.72
2023-02-03T14:23:44.764Z,8.71
2023-02-03T14:26:30.494Z,8.70
2023-02-03T14:28:57.412Z,8.72
2023-02-03T14:31:25.525Z,8.77
2023-02-03T14:34:13.408Z,8.71
2023-02-03T14:36:53.258Z,8.74
2023-02-03T14:39:48.885Z,8.65
2023-02-03T14:43:08.628Z,8.58
2023-02-03T14:46:16.427Z,8.67
2023-02-03T14:48:57.597Z,8.64
2023-02-03T14:52:01.565Z,8.60
2023-02-03T14:54:34.377Z,8.58
2023-02-03T14:57:53.278Z,8.65
2023-02-03T15:00:33.656Z,8.52
2023-02-03T15:03:31.439Z,8.55
2023-02-03T15:06:01.635Z,8.62
2023-02-03T15:08:43.216Z,8.56
2023-02-03T15:11:45.360Z,8.56
2023-02-03T15:14:26.345Z,8.53
2023-02-03T15:17:04.593Z,8.62
2023-02-03T15:19:38.358Z,8.56
2023-02-03T15:22:28.642Z,8.51
2023-02-03T15:25:00.166Z,8.44
2023-02-03T15:27:29.107Z,8.44
2023-02-03T15:29:59.217Z,8.40
2023-02-03T15:32:35.318Z,8.47
2023-02-03T15:35:05.451Z,8.52
2023-02-03T15:37:40.085Z,8.52
2023-02-03T15:40:19.923Z,8.59
2023-02-03T15:43:16.048Z,8.48
2023-02-03T15:46:04.270Z,8.60
2023-02-03T15:48:52.868Z,8.51
2023-02-03T15:51:23.133Z,8.54
2023-02-03T15:54:16.124Z,8.49
2023-02-03T15:56:45.152Z,8.51
2023-02-03T15:59:36.252Z,8.52
2023-02-03T16:02:15.088Z,8.63
2023-02-03T16:04:41.799Z,8.43
2023-02-03T16:07:19.370Z,8.48
2023-02-03T16:09:46.405Z,8.51
2023-02-03T16:12:33.055Z,8.47
2023-02-03T16:15:02.335Z,8.55
2023-02-03T16:17:34.468Z,8.42
2023-02-03T16:20:23.140Z,8.46
2023-02-03T16:23:30.137Z,8.40
2023-02-03T16:26:22.921Z,8.31
2023-02-03T16:29:35.733Z,8.26
2023-02-03T16:32:20.993Z,8.23
2023-02-03T16:35:06.286Z,8.25
2023-02-03T16:37:54.241Z,8.20
2023-02-03T16:40:41.529Z,8.19
2023-02-03T16:43:31.949Z,8.22
2023-02-03T16:46:18.386Z,8.27
2023-02-03T16:49:03.785Z,8.17
2023-02-03T16:51:41.860Z,8.21
2023-02-03T16:54:13.524Z,8.22
2023-02-03T16:56:43.785Z,8.13
2023-02-03T16:59:10.891Z,8.15
2023-02-03T17:01:37.646Z,8.18
2023-02-03T17:04:04.743Z,8.21
2023-02-03T17:06:33.314Z,8.16
2023-02-03T17:09:00.005Z,8.17
2023-02-03T17:11:27.181Z,8.22
2023-02-03T17:13:57.639Z,8.10
2023-02-03T17:16:25.999Z,8.09
2023-02-03T17:18:53.143Z,8.16
2023-02-03T17:21:26.376Z,8.13
2023-02-03T17:23:53.239Z,8.12
2023-02-03T17:26:19.904Z,8.08
2023-02-03T17:28:46.582Z,8.11
2023-02-03T17:31:15.978Z,8.11
2023-02-03T17:33:43.293Z,8.07
2023-02-03T17:36:15.842Z,8.14
2023-02-03T17:54:54.313Z,8.01
2023-02-03T17:57:21.038Z,7.97
2023-02-03T17:59:47.624Z,8.02
2023-02-03T18:02:17.525Z,7.93
2023-02-03T18:04:44.676Z,7.98
2023-02-03T18:07:11.561Z,7.95
2023-02-03T18:09:38.231Z,7.91
2023-02-03T18:12:05.285Z,7.89
2023-02-03T18:14:32.028Z,7.82
2023-02-03T18:16:58.651Z,7.86
2023-02-03T18:19:25.386Z,7.94
2023-02-03T18:21:52.252Z,7.90
2023-02-03T18:24:27.289Z,7.90
2023-02-03T18:26:54.138Z,7.92
2023-02-03T18:29:21.061Z,7.83
2023-02-03T18:31:48.298Z,7.82
2023-02-03T18:37:45.835Z,7.85
2023-02-03T18:40:12.814Z,7.94
2023-02-03T18:42:42.841Z,7.75
2023-02-03T18:45:11.427Z,7.85
2023-02-03T18:47:38.079Z,7.73
2023-02-03T18:50:05.419Z,7.75
2023-02-03T18:52:32.137Z,7.87
2023-02-03T18:54:59.350Z,7.70
2023-02-03T18:57:26.484Z,7.72
2023-02-03T18:59:53.208Z,7.67
2023-02-03T19:02:19.994Z,7.69
2023-02-03T19:04:46.602Z,7.69
2023-02-03T19:07:13.244Z,7.75
2023-02-03T19:09:40.866Z,7.78
2023-02-03T19:12:10.878Z,7.75
2023-02-03T19:14:37.670Z,7.76
2023-02-03T19:17:04.913Z,7.85
2023-02-03T19:19:31.549Z,7.70
2023-02-03T19:21:58.700Z,7.83
2023-02-03T19:24:27.011Z,7.79
2023-02-03T19:26:54.412Z,7.72
2023-02-03T19:29:21.057Z,7.79
2023-02-03T19:31:48.116Z,7.69
2023-02-03T19:34:16.305Z,7.65
2023-02-03T19:36:43.358Z,7.68
2023-02-03T19:39:10.900Z,7.73
2023-02-03T19:41:37.607Z,7.86
2023-02-03T19:44:05.962Z,7.73
2023-02-03T19:46:37.509Z,7.77
2023-02-03T19:49:11.683Z,7.79
2023-02-03T19:51:38.688Z,7.73
2023-02-03T19:54:05.703Z,7.66
2023-02-03T19:56:32.810Z,7.76
2023-02-03T19:59:00.095Z,7.64
2023-02-03T20:01:27.471Z,7.67
2023-02-03T20:03:54.060Z,7.69
2023-02-03T20:06:20.802Z,7.68
2023-02-03T20:08:47.458Z,7.62
2023-02-03T20:11:14.375Z,7.65
2023-02-03T20:13:42.468Z,7.65
2023-02-03T20:16:09.386Z,7.62
2023-02-03T20:18:36.158Z,7.55
2023-02-03T20:21:02.861Z,7.62
2023-02-03T20:23:29.578Z,7.51
2023-02-03T20:25:56.368Z,7.62
2023-02-03T20:28:25.160Z,7.66
2023-02-03T20:30:53.376Z,7.70
2023-02-03T20:33:27.440Z,7.58
2023-02-03T20:35:55.196Z,7.54
2023-02-03T20:38:22.023Z,7.49
2023-02-03T20:40:49.104Z,7.55
2023-02-03T20:43:27.504Z,7.52
2023-02-03T20:45:54.612Z,7.54
2023-02-03T20:48:25.909Z,7.47
2023-02-03T20:50:52.978Z,7.59
2023-02-03T20:53:22.022Z,7.57
2023-02-03T20:55:49.042Z,7.47
2023-02-03T20:58:40.300Z,7.46
2023-02-03T21:01:13.813Z,7.43
2023-02-03T21:03:59.247Z,7.43
2023-02-03T21:06:26.416Z,7.46
2023-02-03T21:08:53.291Z,7.37
2023-02-03T21:11:21.603Z,7.35
2023-02-03T21:13:50.038Z,7.39
2023-02-03T21:16:21.941Z,7.34
2023-02-03T21:18:57.042Z,7.29
2023-02-03T21:21:35.326Z,7.21
2023-02-03T21:24:04.114Z,7.33
2023-02-03T21:26:34.006Z,7.31
2023-02-03T21:29:01.608Z,7.31
2023-02-03T21:31:33.751Z,7.34
2023-02-03T21:34:02.817Z,7.25
2023-02-03T21:36:36.041Z,7.17
2023-02-03T21:39:03.001Z,7.21
2023-02-03T21:41:33.389Z,7.20
2023-02-03T21:44:00.072Z,7.20
2023-02-03T21:46:32.803Z,7.14
2023-02-03T21:49:00.720Z,7.17
2023-02-03T21:51:30.197Z,7.14
2023-02-03T21:54:24.082Z,7.03
2023-02-03T21:56:51.018Z,7.09
2023-02-03T21:59:23.595Z,7.15
2023-02-03T22:01:50.540Z,7.01
2023-02-03T22:04:17.199Z,7.01
2023-02-03T22:06:55.082Z,7.01
2023-02-03T22:09:23.705Z,7.01
2023-02-03T22:11:50.774Z,7.12
2023-02-03T22:14:18.422Z,7.09
2023-02-03T22:16:45.222Z,7.01
2023-02-03T22:19:12.121Z,7.07
2023-02-03T22:21:39.169Z,6.97
2023-02-03T22:24:06.634Z,6.94
2023-02-03T22:26:33.421Z,6.97
2023-02-03T22:29:00.118Z,6.95
2023-02-03T22:31:27.237Z,6.99
2023-02-03T22:33:54.204Z,7.03
2023-02-03T22:36:23.631Z,6.93
2023-02-03T22:38:50.385Z,6.92
2023-02-03T22:41:17.082Z,7.02
2023-02-03T22:43:43.904Z,7.02
2023-02-03T22:46:10.670Z,7.04
2023-02-03T22:48:37.562Z,7.12
2023-02-03T22:51:05.160Z,7.15
2023-02-03T22:53:32.321Z,7.24
2023-02-03T22:55:59.051Z,6.99
2023-02-03T22:58:25.678Z,7.12
2023-02-03T23:00:52.335Z,7.03
2023-02-03T23:03:19.461Z,6.98
2023-02-03T23:05:46.134Z,6.95
2023-02-03T23:08:12.902Z,6.91
2023-02-03T23:10:39.695Z,7.04
2023-02-03T23:13:06.716Z,6.97
2023-02-03T23:15:33.540Z,6.89
2023-02-03T23:18:00.322Z,6.93
2023-02-03T23:20:27.045Z,6.98
2023-02-03T23:22:53.884Z,6.93
2023-02-03T23:25:20.580Z,6.83
2023-02-03T23:27:47.332Z,6.94
2023-02-03T23:30:15.321Z,6.85
2023-02-03T23:32:42.083Z,6.95
2023-02-03T23:35:27.911Z,6.88
2023-02-03T23:37:55.079Z,6.92
2023-02-03T23:40:21.903Z,6.88
2023-02-03T23:42:48.581Z,6.92
2023-02-03T23:45:15.769Z,6.91
2023-02-03T23:47:44.000Z,6.89
2023-02-03T23:50:17.426Z,6.93
2023-02-03T23:52:44.088Z,6.83
2023-02-03T23:55:16.555Z,6.75
2023-02-03T23:57:43.218Z,6.83
